createdAt,value
2023-03-14T00:01:26.485Z,60.60
2023-03-14T00:03:00.046Z,60.60
2023-03-14T00:04:32.256Z,60.50
2023-03-14T00:06:06.421Z,60.50
2023-03-14T00:07:41.683Z,60.50
2023-03-14T00:09:15.362Z,60.40
2023-03-14T00:10:49.805Z,60.50
2023-03-14T00:12:22.963Z,60.50
2023-03-14T00:13:56.183Z,60.60
2023-03-14T00:15:29.434Z,60.50
2023-03-14T00:17:02.552Z,60.50
2023-03-14T00:18:35.186Z,60.50
2023-03-14T00:20:12.240Z,60.50
2023-03-14T00:21:45.407Z,60.50
2023-03-14T00:23:18.506Z,60.50
2023-03-14T00:24:52.449Z,60.50
2023-03-14T00:26:27.597Z,60.50
2023-03-14T00:28:00.768Z,60.50
2023-03-14T00:29:34.892Z,60.50
2023-03-14T00:31:11.095Z,60.40
2023-03-14T00:32:44.339Z,60.40
2023-03-14T00:34:16.531Z,60.40
2023-03-14T00:35:56.233Z,60.40
2023-03-14T00:37:29.864Z,60.30
2023-03-14T00:39:03.261Z,60.30
2023-03-14T00:40:41.621Z,60.20
2023-03-14T00:42:16.560Z,60.20
2023-03-14T00:43:49.107Z,60.20
2023-03-14T00:45:22.258Z,60.20
2023-03-14T00:46:55.572Z,60.10
2023-03-14T00:48:29.659Z,60.10
2023-03-14T00:50:03.187Z,60.20
2023-03-14T00:51:36.311Z,60.10
2023-03-14T00:53:09.685Z,60.20
2023-03-14T00:54:43.081Z,60.20
2023-03-14T00:56:16.795Z,60.10
2023-03-14T00:57:51.389Z,60.20
2023-03-14T00:59:24.608Z,60.10
2023-03-14T01:00:58.041Z,60.10
2023-03-14T01:02:31.062Z,60.20
2023-03-14T01:04:05.457Z,60.20
2023-03-14T01:05:39.686Z,60.20
2023-03-14T01:07:12.790Z,60.20
2023-03-14T01:08:47.207Z,60.10
2023-03-14T01:10:20.597Z,60.10
2023-03-14T01:11:53.861Z,60.10
2023-03-14T01:13:28.601Z,60.00
2023-03-14T01:15:01.732Z,60.00
2023-03-14T01:16:37.087Z,60.00
2023-03-14T01:18:10.295Z,60.20
2023-03-14T01:19:43.439Z,60.10
2023-03-14T01:21:20.900Z,60.20
2023-03-14T01:22:54.363Z,60.40
2023-03-14T01:24:27.612Z,60.50
2023-03-14T01:26:00.676Z,60.60
2023-03-14T01:27:34.110Z,60.70
2023-03-14T01:29:08.784Z,60.80
2023-03-14T01:30:44.898Z,60.70
2023-03-14T01:32:19.357Z,60.80
2023-03-14T01:33:52.997Z,60.90
2023-03-14T01:35:26.107Z,61.00
2023-03-14T01:37:01.547Z,61.20
2023-03-14T01:38:38.102Z,61.50
2023-03-14T01:40:17.272Z,61.80
2023-03-14T01:41:50.488Z,61.00
2023-03-14T01:43:25.269Z,59.70
2023-03-14T01:45:02.346Z,59.00
2023-03-14T01:46:41.291Z,58.90
2023-03-14T01:48:14.471Z,59.50
2023-03-14T01:49:51.856Z,58.80
2023-03-14T01:51:31.656Z,58.90
2023-03-14T01:53:07.566Z,59.20
2023-03-14T01:54:44.832Z,59.20
2023-03-14T01:56:19.164Z,59.40
2023-03-14T01:57:59.072Z,59.50
2023-03-14T01:59:34.585Z,59.90
2023-03-14T02:01:11.384Z,60.00
2023-03-14T02:02:51.176Z,60.30
2023-03-14T02:04:34.614Z,60.30
2023-03-14T02:06:10.055Z,60.50
2023-03-14T02:07:52.255Z,60.40
2023-03-14T02:09:30.774Z,60.50
2023-03-14T02:11:05.537Z,60.50
2023-03-14T02:13:06.600Z,60.50
2023-03-14T02:14:57.569Z,60.60
2023-03-14T02:16:38.146Z,60.60
2023-03-14T02:18:42.663Z,60.80
2023-03-14T02:20:44.755Z,60.90
2023-03-14T02:22:18.654Z,61.20
2023-03-14T02:24:17.659Z,61.30
2023-03-14T02:26:07.540Z,61.50
2023-03-14T02:27:42.690Z,61.50
2023-03-14T02:29:15.860Z,61.80
2023-03-14T02:30:49.850Z,61.80
2023-03-14T02:32:27.027Z,62.00
2023-03-14T02:34:01.812Z,62.30
2023-03-14T02:35:42.421Z,62.60
2023-03-14T02:37:19.516Z,63.60
2023-03-14T02:39:04.127Z,62.80
2023-03-14T02:40:37.354Z,62.70
2023-03-14T02:42:10.513Z,62.70
2023-03-14T02:43:45.244Z,62.80
2023-03-14T02:45:39.760Z,63.00
2023-03-14T02:47:13.080Z,63.40
2023-03-14T02:48:51.894Z,63.20
2023-03-14T02:50:29.168Z,63.40
2023-03-14T02:52:03.176Z,63.40
2023-03-14T02:53:39.285Z,63.50
2023-03-14T02:55:21.718Z,63.70
2023-03-14T02:56:55.264Z,63.80
2023-03-14T02:58:30.175Z,63.90
2023-03-14T03:00:13.130Z,64.00
2023-03-14T03:01:47.393Z,64.20
2023-03-14T03:03:20.458Z,64.30
2023-03-14T03:04:55.635Z,64.30
2023-03-14T03:06:28.899Z,64.40
2023-03-14T03:08:01.420Z,64.30
2023-03-14T03:09:34.592Z,64.30
2023-03-14T03:11:08.319Z,64.50
2023-03-14T03:12:41.256Z,64.50
2023-03-14T03:14:14.445Z,64.60
2023-03-14T03:15:49.109Z,64.70
2023-03-14T03:17:21.193Z,64.80
2023-03-14T03:18:54.399Z,64.80
2023-03-14T03:20:27.884Z,64.90
2023-03-14T03:22:01.214Z,65.10
2023-03-14T03:23:34.331Z,65.00
2023-03-14T03:25:10.365Z,65.00
2023-03-14T03:26:43.740Z,65.00
2023-03-14T03:28:17.895Z,65.00
2023-03-14T03:29:51.157Z,65.00
2023-03-14T03:31:25.680Z,65.10
2023-03-14T03:32:57.847Z,65.10
2023-03-14T03:34:31.448Z,65.10
2023-03-14T03:36:04.272Z,65.10
2023-03-14T03:37:41.439Z,65.20
2023-03-14T03:39:14.551Z,65.20
2023-03-14T03:40:47.797Z,65.20
2023-03-14T03:42:21.528Z,65.30
2023-03-14T03:43:55.297Z,65.30
2023-03-14T03:45:28.955Z,65.30
2023-03-14T03:47:04.789Z,65.30
2023-03-14T03:48:38.134Z,65.30
2023-03-14T03:50:12.795Z,65.50
2023-03-14T03:51:45.965Z,65.00
2023-03-14T03:53:32.322Z,65.00
2023-03-14T03:55:07.981Z,65.00
2023-03-14T03:56:41.117Z,65.00
2023-03-14T03:58:14.389Z,65.00
2023-03-14T03:59:47.523Z,65.10
2023-03-14T04:01:20.592Z,65.10
2023-03-14T04:02:58.401Z,65.10
2023-03-14T04:04:31.789Z,65.20
2023-03-14T04:06:12.832Z,65.20
2023-03-14T04:07:47.075Z,65.30
2023-03-14T04:09:24.304Z,65.30
2023-03-14T04:11:26.232Z,65.40
2023-03-14T04:13:12.830Z,66.30
2023-03-14T04:14:47.886Z,65.50
2023-03-14T04:16:28.097Z,65.50
2023-03-14T04:18:09.735Z,65.70
2023-03-14T04:19:43.154Z,65.60
2023-03-14T04:21:17.466Z,65.60
2023-03-14T04:22:56.109Z,65.70
2023-03-14T04:24:29.230Z,65.80
2023-03-14T04:26:03.669Z,65.70
2023-03-14T04:27:39.400Z,65.80
2023-03-14T04:29:19.008Z,65.90
2023-03-14T04:30:53.097Z,65.90
2023-03-14T04:32:29.631Z,66.10
2023-03-14T04:34:05.392Z,65.70
2023-03-14T04:35:43.312Z,65.80
2023-03-14T04:37:19.024Z,65.80
2023-03-14T04:38:52.268Z,65.80
2023-03-14T04:40:27.728Z,65.90
2023-03-14T04:42:06.696Z,65.90
2023-03-14T04:43:40.252Z,65.70
2023-03-14T04:45:15.420Z,65.90
2023-03-14T04:46:49.608Z,65.90
2023-03-14T04:48:23.641Z,66.00
2023-03-14T04:49:58.248Z,66.20
2023-03-14T04:51:32.380Z,66.10
2023-03-14T04:53:06.184Z,66.90
2023-03-14T04:54:39.386Z,66.20
2023-03-14T04:56:13.835Z,66.20
2023-03-14T04:57:48.877Z,66.20
2023-03-14T04:59:21.974Z,66.20
2023-03-14T05:00:57.092Z,66.30
2023-03-14T05:02:48.756Z,66.30
2023-03-14T05:04:33.754Z,66.30
2023-03-14T05:06:26.779Z,66.30
2023-03-14T05:08:15.172Z,66.20
2023-03-14T05:10:07.533Z,66.20
2023-03-14T05:11:59.411Z,66.70
2023-03-14T05:13:51.150Z,66.00
2023-03-14T05:15:38.688Z,66.10
2023-03-14T05:17:21.987Z,66.00
2023-03-14T05:19:12.439Z,66.20
2023-03-14T05:20:56.932Z,66.30
2023-03-14T05:22:54.388Z,66.30
2023-03-14T05:24:59.536Z,66.40
2023-03-14T05:26:45.411Z,66.70
2023-03-14T05:28:37.488Z,66.20
2023-03-14T05:30:19.530Z,66.20
2023-03-14T05:32:11.904Z,66.30
2023-03-14T05:34:02.951Z,66.40
2023-03-14T05:35:49.094Z,66.40
2023-03-14T05:37:41.152Z,66.40
2023-03-14T05:39:24.773Z,66.60
2023-03-14T05:41:19.821Z,66.70
2023-03-14T05:43:22.268Z,66.70
2023-03-14T05:45:10.891Z,67.50
2023-03-14T05:47:06.841Z,66.70
2023-03-14T05:48:58.684Z,66.80
2023-03-14T05:50:57.948Z,66.70
2023-03-14T05:52:41.988Z,66.80
2023-03-14T05:54:45.369Z,66.80
2023-03-14T05:56:44.506Z,66.80
2023-03-14T05:58:17.628Z,66.80
2023-03-14T06:00:17.775Z,66.90
2023-03-14T06:02:02.909Z,67.00
2023-03-14T06:03:44.712Z,67.20
2023-03-14T06:05:18.703Z,67.10
2023-03-14T06:06:52.470Z,67.30
2023-03-14T06:08:25.785Z,67.40
2023-03-14T06:10:00.535Z,67.40
2023-03-14T06:11:33.741Z,67.50
2023-03-14T06:13:07.091Z,67.40
2023-03-14T06:14:41.356Z,67.50
2023-03-14T06:16:15.255Z,67.50
2023-03-14T06:17:49.000Z,67.50
2023-03-14T06:19:23.152Z,67.50
2023-03-14T06:20:57.255Z,67.80
2023-03-14T06:22:33.151Z,67.50
2023-03-14T06:24:06.730Z,67.40
2023-03-14T06:25:48.292Z,67.40
2023-03-14T06:27:21.437Z,67.50
2023-03-14T06:29:02.117Z,67.40
2023-03-14T06:30:35.303Z,67.50
2023-03-14T06:32:08.832Z,67.60
2023-03-14T06:33:43.521Z,67.50
2023-03-14T06:35:17.376Z,67.80
2023-03-14T06:36:51.371Z,67.30
2023-03-14T06:38:24.635Z,67.30
2023-03-14T06:40:01.226Z,67.20
2023-03-14T06:41:53.645Z,67.20
2023-03-14T06:43:26.892Z,67.20
2023-03-14T06:45:00.000Z,67.20
2023-03-14T06:46:33.967Z,67.20
2023-03-14T06:48:08.037Z,67.20
2023-03-14T06:49:46.088Z,67.30
2023-03-14T06:51:20.106Z,67.30
2023-03-14T06:52:54.885Z,67.30
2023-03-14T06:54:31.811Z,67.30
2023-03-14T06:56:05.481Z,67.30
2023-03-14T06:57:41.526Z,67.30
2023-03-14T06:59:14.751Z,67.30
2023-03-14T07:00:48.707Z,67.20
2023-03-14T07:02:41.964Z,67.20
2023-03-14T07:04:25.143Z,67.20
2023-03-14T07:05:59.309Z,67.30
2023-03-14T07:07:32.597Z,67.30
2023-03-14T07:09:05.932Z,67.50
2023-03-14T07:10:41.056Z,67.50
2023-03-14T07:12:14.955Z,67.50
2023-03-14T07:13:49.785Z,67.60
2023-03-14T07:15:22.892Z,67.60
2023-03-14T07:17:00.202Z,67.60
2023-03-14T07:18:33.403Z,67.60
2023-03-14T07:20:11.854Z,67.60
2023-03-14T07:21:45.226Z,67.70
2023-03-14T07:23:20.535Z,67.60
2023-03-14T07:24:56.129Z,67.70
2023-03-14T07:26:30.921Z,67.70
2023-03-14T07:28:04.125Z,67.80
2023-03-14T07:29:38.699Z,67.90
2023-03-14T07:31:12.231Z,67.90
2023-03-14T07:32:45.921Z,67.90
2023-03-14T07:34:20.438Z,68.00
2023-03-14T07:35:53.812Z,68.00
2023-03-14T07:37:26.912Z,68.10
2023-03-14T07:39:00.302Z,68.10
2023-03-14T07:40:42.386Z,68.20
2023-03-14T07:42:16.536Z,68.20
2023-03-14T07:43:49.619Z,68.20
2023-03-14T07:45:25.132Z,68.20
2023-03-14T07:46:58.522Z,68.20
2023-03-14T07:48:31.909Z,68.10
2023-03-14T07:50:06.036Z,68.10
2023-03-14T07:51:39.453Z,68.10
2023-03-14T07:53:12.534Z,68.10
2023-03-14T07:54:45.872Z,68.10
2023-03-14T07:56:19.150Z,68.20
2023-03-14T07:57:52.718Z,68.20
2023-03-14T07:59:25.865Z,68.20
2023-03-14T08:01:01.343Z,68.20
2023-03-14T08:02:34.452Z,68.30
2023-03-14T08:04:07.700Z,68.10
2023-03-14T08:05:41.740Z,68.20
2023-03-14T08:07:14.910Z,68.20
2023-03-14T08:08:48.269Z,68.20
2023-03-14T08:10:24.880Z,68.20
2023-03-14T08:11:58.830Z,68.30
2023-03-14T08:13:32.016Z,68.30
2023-03-14T08:15:06.142Z,68.40
2023-03-14T08:16:40.993Z,68.50
2023-03-14T08:18:14.044Z,68.60
2023-03-14T08:19:47.176Z,68.40
2023-03-14T08:21:20.399Z,68.40
2023-03-14T08:22:54.257Z,68.50
2023-03-14T08:24:27.525Z,68.50
2023-03-14T08:26:00.731Z,68.50
2023-03-14T08:27:34.038Z,68.40
2023-03-14T08:29:08.116Z,68.40
2023-03-14T08:30:41.410Z,68.40
2023-03-14T08:32:18.809Z,68.40
2023-03-14T08:33:53.126Z,68.40
2023-03-14T08:35:27.316Z,68.40
2023-03-14T08:37:00.799Z,68.60
2023-03-14T08:38:34.245Z,68.60
2023-03-14T08:40:10.969Z,68.70
2023-03-14T08:41:45.637Z,68.90
2023-03-14T08:43:18.767Z,68.80
2023-03-14T08:44:53.261Z,68.90
2023-03-14T08:46:26.804Z,68.90
2023-03-14T08:48:01.364Z,69.00
2023-03-14T08:49:34.774Z,68.80
2023-03-14T08:51:09.219Z,68.90
2023-03-14T08:52:42.789Z,68.70
2023-03-14T08:54:16.476Z,68.70
2023-03-14T08:55:49.884Z,68.90
2023-03-14T08:57:28.234Z,68.80
2023-03-14T08:59:01.481Z,68.90
2023-03-14T09:00:34.762Z,68.80
2023-03-14T09:02:08.153Z,68.80
2023-03-14T09:03:42.831Z,69.00
2023-03-14T09:05:16.041Z,69.00
2023-03-14T09:06:49.262Z,69.10
2023-03-14T09:08:22.438Z,69.00
2023-03-14T09:09:55.583Z,69.00
2023-03-14T09:11:28.900Z,69.10
2023-03-14T09:13:02.019Z,69.10
2023-03-14T09:14:35.409Z,69.30
2023-03-14T09:16:10.386Z,69.40
2023-03-14T09:17:45.437Z,69.40
2023-03-14T09:19:20.059Z,69.50
2023-03-14T09:20:53.171Z,69.40
2023-03-14T09:22:26.996Z,69.50
2023-03-14T09:24:00.111Z,69.60
2023-03-14T09:25:33.252Z,69.60
2023-03-14T09:27:06.380Z,69.50
2023-03-14T09:28:39.561Z,69.30
2023-03-14T09:30:13.959Z,69.30
2023-03-14T09:31:47.088Z,69.30
2023-03-14T09:33:20.927Z,69.30
2023-03-14T09:34:55.450Z,69.40
2023-03-14T09:36:28.730Z,69.50
2023-03-14T09:38:01.886Z,69.50
2023-03-14T09:39:35.029Z,69.60
2023-03-14T09:41:19.718Z,69.50
2023-03-14T09:42:55.898Z,69.70
2023-03-14T09:44:33.791Z,69.70
2023-03-14T09:46:10.077Z,69.50
2023-03-14T09:47:58.240Z,69.40
2023-03-14T09:49:36.095Z,69.10
2023-03-14T09:51:18.254Z,68.80
2023-03-14T09:53:01.275Z,68.90
2023-03-14T09:54:39.181Z,68.60
2023-03-14T09:56:19.053Z,68.40
2023-03-14T09:57:58.646Z,68.20
2023-03-14T09:59:32.177Z,68.00
2023-03-14T10:01:05.927Z,67.80
2023-03-14T10:02:39.164Z,67.70
2023-03-14T10:04:18.761Z,67.60
2023-03-14T10:05:52.510Z,67.30
2023-03-14T10:07:31.443Z,67.10
2023-03-14T10:09:06.519Z,67.00
2023-03-14T10:10:40.178Z,67.10
2023-03-14T10:12:14.311Z,67.20
2023-03-14T10:14:04.935Z,67.10
2023-03-14T10:15:40.321Z,66.90
2023-03-14T10:17:16.730Z,66.50
2023-03-14T10:18:50.256Z,66.00
2023-03-14T10:20:36.988Z,65.60
2023-03-14T10:22:17.299Z,64.90
2023-03-14T10:23:51.795Z,64.70
2023-03-14T10:25:31.193Z,64.50
2023-03-14T10:27:10.677Z,63.90
2023-03-14T10:28:48.183Z,64.10
2023-03-14T10:30:36.749Z,64.00
2023-03-14T10:32:22.916Z,63.80
2023-03-14T10:34:04.902Z,63.80
2023-03-14T10:35:38.737Z,63.90
2023-03-14T10:37:23.774Z,63.90
2023-03-14T10:39:24.645Z,63.20
2023-03-14T10:40:59.531Z,63.30
2023-03-14T10:42:36.644Z,63.70
2023-03-14T10:44:14.376Z,63.50
2023-03-14T10:45:58.737Z,63.20
2023-03-14T10:47:34.023Z,63.30
2023-03-14T10:49:08.358Z,63.20
2023-03-14T10:50:51.726Z,63.10
2023-03-14T10:52:45.666Z,63.30
2023-03-14T10:54:25.843Z,63.40
2023-03-14T10:55:59.687Z,63.10
2023-03-14T10:57:32.909Z,63.10
2023-03-14T10:59:14.753Z,64.10
2023-03-14T11:00:54.325Z,63.20
2023-03-14T11:02:55.860Z,63.10
2023-03-14T11:04:56.864Z,62.70
2023-03-14T11:06:42.973Z,62.80
2023-03-14T11:08:26.404Z,62.90
2023-03-14T11:10:10.289Z,62.90
2023-03-14T11:11:49.520Z,62.90
2023-03-14T11:13:28.702Z,62.90
2023-03-14T11:15:07.855Z,62.90
2023-03-14T11:16:55.402Z,63.50
2023-03-14T11:19:10.016Z,62.70
2023-03-14T11:20:54.351Z,62.80
2023-03-14T11:22:41.424Z,63.00
2023-03-14T11:24:41.649Z,63.00
2023-03-14T11:26:31.309Z,62.70
2023-03-14T11:28:19.446Z,62.40
2023-03-14T11:30:02.804Z,62.10
2023-03-14T11:31:42.444Z,61.20
2023-03-14T11:33:18.248Z,61.20
2023-03-14T11:34:54.806Z,61.60
2023-03-14T11:36:34.052Z,62.10
2023-03-14T11:38:30.155Z,62.30
2023-03-14T11:40:16.845Z,62.20
2023-03-14T11:41:54.694Z,62.00
2023-03-14T11:43:32.743Z,61.40
2023-03-14T11:45:16.290Z,61.10
2023-03-14T11:46:58.786Z,61.40
2023-03-14T11:48:43.674Z,60.90
2023-03-14T11:50:22.367Z,60.80
2023-03-14T11:52:01.649Z,60.70
2023-03-14T11:53:50.633Z,61.30
2023-03-14T11:55:31.113Z,62.00
2023-03-14T11:57:12.345Z,61.80
2023-03-14T11:58:57.595Z,61.60
2023-03-14T12:00:32.621Z,61.60
2023-03-14T12:02:16.016Z,61.50
2023-03-14T12:04:00.844Z,61.10
2023-03-14T12:05:56.303Z,61.10
2023-03-14T12:07:41.951Z,61.30
2023-03-14T12:09:17.720Z,61.10
2023-03-14T12:10:55.247Z,60.50
2023-03-14T12:12:31.999Z,60.50
2023-03-14T12:14:19.143Z,60.40
2023-03-14T12:15:59.436Z,60.40
2023-03-14T12:17:40.943Z,60.50
2023-03-14T12:19:35.362Z,60.50
2023-03-14T12:21:12.726Z,60.40
2023-03-14T12:22:49.896Z,59.80
2023-03-14T12:24:27.977Z,59.40
2023-03-14T12:26:21.020Z,59.40
2023-03-14T12:28:22.084Z,59.30
2023-03-14T12:30:03.936Z,59.20
2023-03-14T12:31:43.530Z,59.00
2023-03-14T12:33:35.204Z,59.20
2023-03-14T12:35:37.805Z,59.20
2023-03-14T12:37:31.912Z,59.30
2023-03-14T12:39:24.392Z,59.40
2023-03-14T12:41:07.746Z,59.50
2023-03-14T12:42:58.970Z,59.60
2023-03-14T12:44:46.730Z,59.70
2023-03-14T12:46:27.205Z,59.70
2023-03-14T12:48:12.759Z,59.60
2023-03-14T12:49:48.507Z,59.70
2023-03-14T12:51:31.692Z,59.70
2023-03-14T12:54:08.867Z,59.60
2023-03-14T12:55:48.927Z,59.60
2023-03-14T12:57:35.100Z,59.60
2023-03-14T12:59:31.524Z,59.60
2023-03-14T13:01:12.533Z,59.70
2023-03-14T13:02:48.993Z,59.80
2023-03-14T13:04:38.968Z,60.60
2023-03-14T13:06:13.870Z,59.90
2023-03-14T13:08:11.539Z,60.00
2023-03-14T13:09:57.540Z,60.20
2023-03-14T13:11:30.843Z,60.60
2023-03-14T13:13:16.304Z,60.90
2023-03-14T13:14:53.278Z,61.30
2023-03-14T13:16:29.978Z,61.70
2023-03-14T13:18:12.786Z,61.90
2023-03-14T13:19:52.233Z,62.20
2023-03-14T13:21:29.350Z,62.60
2023-03-14T13:23:02.865Z,63.10
2023-03-14T13:24:37.139Z,63.10
2023-03-14T13:26:16.609Z,62.80
2023-03-14T13:27:50.449Z,62.50
2023-03-14T13:29:27.539Z,62.40
2023-03-14T13:31:04.290Z,62.70
2023-03-14T13:32:46.178Z,62.90
2023-03-14T13:34:20.853Z,62.90
2023-03-14T13:35:59.957Z,62.80
2023-03-14T13:37:33.253Z,62.50
2023-03-14T13:39:13.860Z,62.30
2023-03-14T13:40:48.703Z,61.90
2023-03-14T13:42:20.770Z,61.50
2023-03-14T13:44:00.144Z,61.20
2023-03-14T13:45:33.590Z,60.90
2023-03-14T13:47:15.916Z,59.90
2023-03-14T13:48:56.583Z,59.60
2023-03-14T13:50:30.272Z,59.20
2023-03-14T13:52:04.256Z,58.80
2023-03-14T13:53:46.261Z,58.70
2023-03-14T13:55:21.293Z,58.60
2023-03-14T13:57:02.897Z,58.70
2023-03-14T13:58:41.772Z,58.60
2023-03-14T14:00:27.500Z,58.40
2023-03-14T14:02:05.405Z,58.30
2023-03-14T14:03:42.591Z,58.50
2023-03-14T14:05:18.040Z,58.50
2023-03-14T14:06:58.453Z,58.40
2023-03-14T14:08:32.151Z,58.30
2023-03-14T14:10:06.461Z,58.50
2023-03-14T14:11:59.272Z,58.90
2023-03-14T14:13:37.939Z,59.10
2023-03-14T14:15:20.376Z,59.20
2023-03-14T14:16:55.055Z,59.10
2023-03-14T14:18:31.783Z,59.10
2023-03-14T14:20:09.936Z,59.00
2023-03-14T14:21:44.902Z,58.60
2023-03-14T14:23:25.779Z,58.70
2023-03-14T14:24:59.197Z,58.70
2023-03-14T14:26:33.219Z,58.90
2023-03-14T14:28:22.805Z,58.90
2023-03-14T14:30:03.072Z,59.10
2023-03-14T14:31:36.318Z,59.40
2023-03-14T14:33:21.520Z,59.40
2023-03-14T14:35:01.222Z,59.20
2023-03-14T14:36:42.702Z,59.40
2023-03-14T14:38:21.165Z,59.40
2023-03-14T14:39:57.443Z,59.70
2023-03-14T14:41:34.491Z,59.70
2023-03-14T14:43:07.925Z,59.60
2023-03-14T14:44:41.249Z,59.90
2023-03-14T14:46:21.628Z,60.10
2023-03-14T14:47:59.098Z,60.30
2023-03-14T14:49:35.070Z,59.90
2023-03-14T14:51:09.679Z,60.20
2023-03-14T14:52:45.819Z,60.50
2023-03-14T14:54:33.732Z,60.60
2023-03-14T14:56:17.455Z,60.70
2023-03-14T14:57:53.982Z,61.00
2023-03-14T14:59:30.357Z,61.20
2023-03-14T15:01:12.975Z,61.30
2023-03-14T15:02:54.870Z,61.20
2023-03-14T15:04:31.783Z,61.10
2023-03-14T15:06:05.994Z,60.90
2023-03-14T15:07:39.168Z,60.50
2023-03-14T15:09:13.257Z,60.30
2023-03-14T15:10:47.774Z,60.80
2023-03-14T15:12:32.814Z,59.70
2023-03-14T15:14:11.654Z,59.80
2023-03-14T15:15:47.138Z,59.70
2023-03-14T15:17:20.397Z,59.60
2023-03-14T15:18:59.616Z,59.60
2023-03-14T15:20:37.618Z,59.70
2023-03-14T15:22:17.436Z,59.70
2023-03-14T15:23:51.645Z,59.70
2023-03-14T15:25:47.427Z,59.60
2023-03-14T15:27:20.496Z,59.40
2023-03-14T15:28:54.647Z,59.50
2023-03-14T15:30:27.839Z,59.30
2023-03-14T15:32:08.844Z,59.20
2023-03-14T15:33:52.303Z,59.50
2023-03-14T15:35:41.996Z,59.60
2023-03-14T15:37:23.212Z,59.30
2023-03-14T15:39:07.639Z,59.20
2023-03-14T15:40:56.278Z,58.70
2023-03-14T15:42:31.492Z,58.50
2023-03-14T15:44:05.397Z,58.60
2023-03-14T15:45:38.518Z,58.70
2023-03-14T15:47:12.506Z,58.90
2023-03-14T15:48:47.514Z,59.10
2023-03-14T15:50:20.636Z,58.90
2023-03-14T15:51:54.091Z,58.70
2023-03-14T15:53:27.970Z,58.40
2023-03-14T15:55:01.065Z,58.50
2023-03-14T15:56:34.246Z,58.70
2023-03-14T15:58:16.138Z,59.10
2023-03-14T15:59:49.310Z,58.20
2023-03-14T16:01:22.598Z,58.50
2023-03-14T16:02:55.813Z,58.60
2023-03-14T16:04:30.440Z,58.70
2023-03-14T16:06:03.981Z,58.60
2023-03-14T16:07:37.513Z,58.40
2023-03-14T16:09:10.640Z,58.20
2023-03-14T16:10:44.323Z,58.30
2023-03-14T16:12:17.592Z,58.40
2023-03-14T16:13:52.374Z,58.20
2023-03-14T16:15:26.869Z,58.10
2023-03-14T16:17:00.561Z,58.40
2023-03-14T16:18:36.132Z,58.60
2023-03-14T16:20:10.473Z,58.70
2023-03-14T16:21:43.834Z,58.80
2023-03-14T16:23:18.326Z,58.40
2023-03-14T16:24:51.512Z,57.70
2023-03-14T16:26:24.705Z,57.00
2023-03-14T16:28:10.263Z,56.30
2023-03-14T16:29:47.432Z,56.10
2023-03-14T16:31:23.603Z,55.20
2023-03-14T16:32:58.390Z,56.30
2023-03-14T16:34:31.673Z,56.90
2023-03-14T16:36:08.934Z,57.00
2023-03-14T16:37:42.261Z,57.30
2023-03-14T16:39:15.831Z,57.50
2023-03-14T16:40:59.132Z,57.70
2023-03-14T16:42:32.285Z,57.70
2023-03-14T16:44:05.395Z,58.30
2023-03-14T16:45:39.923Z,57.70
2023-03-14T16:47:13.150Z,57.70
2023-03-14T16:48:47.067Z,57.50
2023-03-14T16:50:20.649Z,57.40
2023-03-14T16:51:53.862Z,57.20
2023-03-14T16:53:29.889Z,57.40
2023-03-14T16:55:04.137Z,57.50
2023-03-14T16:56:37.471Z,58.20
2023-03-14T16:58:11.187Z,57.70
2023-03-14T16:59:44.376Z,57.70
2023-03-14T17:01:20.893Z,57.50
2023-03-14T17:02:54.258Z,57.60
2023-03-14T17:04:27.523Z,57.60
2023-03-14T17:06:00.667Z,57.50
2023-03-14T17:07:33.741Z,57.50
2023-03-14T17:09:07.893Z,57.40
2023-03-14T17:10:40.991Z,56.80
2023-03-14T17:12:14.185Z,56.80
2023-03-14T17:13:48.079Z,56.80
2023-03-14T17:15:21.613Z,56.80
2023-03-14T17:16:56.290Z,56.90
2023-03-14T17:18:31.951Z,56.90
2023-03-14T17:20:07.800Z,56.80
2023-03-14T17:21:41.219Z,56.70
2023-03-14T17:23:14.268Z,56.50
2023-03-14T17:24:47.608Z,56.30
2023-03-14T17:26:20.785Z,56.20
2023-03-14T17:27:53.939Z,56.20
2023-03-14T17:29:27.012Z,56.20
2023-03-14T17:31:08.866Z,56.20
2023-03-14T17:32:42.410Z,56.10
2023-03-14T17:34:19.008Z,55.60
2023-03-14T17:35:52.265Z,55.60
2023-03-14T17:37:25.620Z,56.10
2023-03-14T17:38:59.132Z,56.00
2023-03-14T17:40:35.607Z,56.00
2023-03-14T17:42:09.184Z,56.10
2023-03-14T17:43:42.687Z,56.00
2023-03-14T17:45:15.985Z,55.90
2023-03-14T17:46:49.198Z,56.70
2023-03-14T17:48:23.933Z,56.70
2023-03-14T17:49:57.070Z,56.70
2023-03-14T17:51:30.189Z,56.70
2023-03-14T17:53:04.247Z,56.80
2023-03-14T17:54:38.569Z,56.80
2023-03-14T17:56:12.551Z,56.90
2023-03-14T17:57:45.674Z,56.80
2023-03-14T17:59:18.996Z,56.70
2023-03-14T18:00:52.443Z,56.70
2023-03-14T18:02:26.897Z,56.50
2023-03-14T18:04:01.826Z,56.50
2023-03-14T18:05:35.085Z,56.40
2023-03-14T18:07:08.311Z,56.60
2023-03-14T18:08:43.660Z,56.70
2023-03-14T18:10:17.398Z,56.80
2023-03-14T18:11:58.791Z,56.80
2023-03-14T18:13:38.404Z,56.80
2023-03-14T18:15:14.216Z,56.90
2023-03-14T18:16:51.559Z,57.00
2023-03-14T18:18:25.217Z,57.00
2023-03-14T18:19:59.662Z,57.10
2023-03-14T18:21:32.765Z,57.10
2023-03-14T18:23:07.014Z,56.90
2023-03-14T18:24:40.485Z,56.90
2023-03-14T18:26:13.811Z,57.00
2023-03-14T18:27:46.990Z,57.00
2023-03-14T18:29:20.049Z,57.10
2023-03-14T18:30:53.216Z,57.30
2023-03-14T18:32:26.680Z,57.30
2023-03-14T18:33:59.954Z,57.30
2023-03-14T18:35:34.639Z,57.50
2023-03-14T18:37:07.863Z,57.60
2023-03-14T18:38:43.087Z,57.80
2023-03-14T18:40:17.398Z,58.20
2023-03-14T18:41:50.629Z,58.10
2023-03-14T18:43:23.753Z,58.10
2023-03-14T18:44:56.955Z,58.10
2023-03-14T18:46:31.330Z,58.10
2023-03-14T18:48:04.921Z,58.10
2023-03-14T18:49:38.195Z,58.10
2023-03-14T18:51:15.800Z,58.40
2023-03-14T18:52:49.087Z,58.50
2023-03-14T18:54:22.136Z,58.50
2023-03-14T18:55:55.788Z,58.40
2023-03-14T18:57:28.992Z,58.40
2023-03-14T18:59:02.210Z,58.50
2023-03-14T19:00:37.125Z,58.70
2023-03-14T19:02:10.771Z,58.80
2023-03-14T19:03:44.562Z,58.90
2023-03-14T19:05:17.993Z,58.90
2023-03-14T19:06:53.945Z,58.90
2023-03-14T19:08:29.117Z,59.00
2023-03-14T19:10:02.654Z,59.00
2023-03-14T19:11:36.340Z,59.10
2023-03-14T19:13:09.706Z,59.00
2023-03-14T19:14:42.850Z,59.00
2023-03-14T19:16:17.753Z,59.00
2023-03-14T19:17:51.197Z,59.20
2023-03-14T19:19:24.302Z,59.20
2023-03-14T19:21:00.178Z,59.30
2023-03-14T19:22:34.817Z,59.30
2023-03-14T19:24:08.590Z,59.30
2023-03-14T19:25:43.485Z,59.30
2023-03-14T19:27:16.620Z,59.40
2023-03-14T19:28:50.020Z,59.30
2023-03-14T19:30:23.357Z,59.30
2023-03-14T19:31:56.579Z,59.40
2023-03-14T19:33:31.247Z,59.40
2023-03-14T19:35:05.093Z,59.40
2023-03-14T19:36:39.182Z,59.30
2023-03-14T19:38:14.234Z,59.40
2023-03-14T19:39:47.318Z,59.40
2023-03-14T19:41:22.244Z,59.50
2023-03-14T19:42:55.789Z,59.80
2023-03-14T19:44:28.876Z,59.50
2023-03-14T19:46:05.294Z,59.50
2023-03-14T19:47:38.443Z,59.60
2023-03-14T19:49:11.586Z,59.60
2023-03-14T19:50:44.926Z,59.50
2023-03-14T19:52:18.569Z,59.50
2023-03-14T19:53:54.027Z,59.50
2023-03-14T19:55:27.542Z,59.60
2023-03-14T19:57:03.947Z,59.50
2023-03-14T19:58:39.674Z,59.40
2023-03-14T20:00:16.808Z,59.50
2023-03-14T20:01:52.599Z,59.50
2023-03-14T20:03:26.430Z,59.50
2023-03-14T20:05:02.224Z,59.60
2023-03-14T20:06:35.626Z,59.60
2023-03-14T20:08:09.349Z,59.50
2023-03-14T20:09:44.067Z,59.50
2023-03-14T20:11:17.226Z,59.50
2023-03-14T20:12:51.753Z,59.40
2023-03-14T20:14:24.865Z,59.50
2023-03-14T20:15:57.993Z,59.50
2023-03-14T20:17:31.333Z,59.40
2023-03-14T20:19:07.087Z,59.50
2023-03-14T20:20:41.936Z,59.50
2023-03-14T20:22:15.267Z,59.60
2023-03-14T20:23:49.457Z,59.70
2023-03-14T20:25:24.107Z,59.80
2023-03-14T20:26:57.201Z,59.80
2023-03-14T20:28:30.932Z,59.70
2023-03-14T20:30:07.742Z,59.70
2023-03-14T20:31:44.249Z,59.70
2023-03-14T20:33:22.320Z,59.70
2023-03-14T20:34:55.824Z,59.80
2023-03-14T20:36:35.842Z,59.80
2023-03-14T20:38:11.239Z,59.90
2023-03-14T20:39:44.500Z,60.60
2023-03-14T20:41:24.385Z,59.90
2023-03-14T20:43:00.268Z,60.00
2023-03-14T20:44:33.444Z,60.00
2023-03-14T20:46:07.528Z,60.10
2023-03-14T20:47:43.619Z,60.10
2023-03-14T20:49:19.607Z,60.00
2023-03-14T20:50:56.613Z,59.90
2023-03-14T20:52:29.741Z,60.00
2023-03-14T20:54:05.460Z,60.00
2023-03-14T20:55:38.571Z,60.10